Time;durP1;ratioP1;P1;durP2;ratioP2;P2;SDS_P1;SDS_P2;PMS_P1;PMS_P2;Temp;Humidity;BMP_temperature;BMP_pressure;BME280_temperature;BME280_humidity;BME280_pressure;Samples;Min_cycle;Max_cycle;Signal;HPM_P1;HPM_P2
2022/07/31 00:01:30;;;;;;;1.63;1.10;;;24.80;84.80;;;;;;5026455;28;20583;-26
2022/07/31 00:03:59;;;;;;;1.10;0.90;;;24.80;84.50;;;;;;5024187;28;20197;-26
2022/07/31 00:06:29;;;;;;;2.35;0.73;;;24.70;84.50;;;;;;5026877;28;20631;-26
2022/07/31 00:08:56;;;;;;;1.67;1.17;;;24.80;84.50;;;;;;5029217;28;20201;-26
2022/07/31 00:11:23;;;;;;;1.85;1.20;;;24.70;84.50;;;;;;5011503;28;20210;-26
2022/07/31 00:13:51;;;;;;;1.65;1.00;;;24.70;84.60;;;;;;5013402;28;20228;-26
2022/07/31 00:16:26;;;;;;;2.15;1.40;;;24.60;84.60;;;;;;5011383;28;20208;-26
2022/07/31 00:18:54;;;;;;;1.90;1.10;;;24.60;84.70;;;;;;5022401;28;20667;-26
2022/07/31 00:21:21;;;;;;;1.65;1.20;;;24.60;84.80;;;;;;5030030;28;20279;-26
2022/07/31 00:23:48;;;;;;;1.58;1.20;;;24.50;84.70;;;;;;5030922;28;20197;-26
2022/07/31 00:26:18;;;;;;;2.10;1.27;;;24.50;84.80;;;;;;5030136;28;20204;-26
2022/07/31 00:28:46;;;;;;;5.18;1.30;;;24.50;84.90;;;;;;5030791;28;20624;-26
2022/07/31 00:31:14;;;;;;;0.93;0.93;;;24.40;84.90;;;;;;5022874;28;20224;-26
2022/07/31 00:33:41;;;;;;;1.20;0.93;;;24.40;84.90;;;;;;5008845;28;20251;-26
2022/07/31 00:36:09;;;;;;;1.98;1.02;;;24.40;84.90;;;;;;5024252;28;20206;-26
2022/07/31 00:38:36;;;;;;;2.15;1.00;;;24.40;85.00;;;;;;5028690;28;20283;-31
2022/07/31 00:41:04;;;;;;;1.77;1.20;;;24.30;85.00;;;;;;5029351;28;20690;-31
2022/07/31 00:43:31;;;;;;;2.00;1.05;;;24.30;85.00;;;;;;5021455;28;20607;-30
2022/07/31 00:45:58;;;;;;;1.33;1.05;;;24.30;85.20;;;;;;5012524;28;20215;-31
2022/07/31 00:48:26;;;;;;;2.83;1.40;;;24.20;85.10;;;;;;5016030;28;20688;-31
2022/07/31 00:50:56;;;;;;;1.70;1.00;;;24.20;85.20;;;;;;5009847;28;20535;-31
2022/07/31 00:53:26;;;;;;;1.48;1.17;;;24.20;85.40;;;;;;5011262;28;20245;-30
2022/07/31 00:55:55;;;;;;;1.50;1.20;;;24.10;85.40;;;;;;5011841;28;20282;-31
2022/07/31 00:58:25;;;;;;;3.00;1.20;;;24.10;85.50;;;;;;5022276;28;20241;-31
2022/07/31 01:00:52;;;;;;;2.13;1.00;;;24.10;85.60;;;;;;5010725;28;20205;-31
2022/07/31 01:03:22;;;;;;;1.00;1.00;;;24.00;85.50;;;;;;5017308;28;20197;-31
2022/07/31 01:05:49;;;;;;;3.15;1.38;;;24.00;85.60;;;;;;5022626;28;20221;-31
2022/07/31 01:08:19;;;;;;;1.35;1.25;;;24.00;85.80;;;;;;5016279;28;20256;-31
2022/07/31 01:11:00;;;;;;;1.30;1.10;;;24.00;85.90;;;;;;5016173;28;20205;-32
2022/07/31 01:13:34;;;;;;;3.63;1.20;;;23.90;85.90;;;;;;5003297;28;20398;-31
2022/07/31 01:16:03;;;;;;;2.15;1.17;;;23.90;86.60;;;;;;5017707;28;20266;-30
2022/07/31 01:18:36;;;;;;;2.83;1.67;;;23.90;86.00;;;;;;5023606;28;20279;-31
2022/07/31 01:21:07;;;;;;;2.95;1.52;;;23.90;86.10;;;;;;5017095;28;20197;-31
2022/07/31 01:24:01;;;;;;;2.70;1.25;;;23.80;86.10;;;;;;5012810;28;20767;-31
2022/07/31 01:26:50;;;;;;;2.38;1.30;;;23.80;86.80;;;;;;5018949;28;20201;-30
2022/07/31 01:29:44;;;;;;;1.02;0.90;;;23.80;86.70;;;;;;5020606;28;20738;-31
2022/07/31 01:32:23;;;;;;;1.85;1.27;;;23.70;86.40;;;;;;5019423;28;20252;-31
2022/07/31 01:35:02;;;;;;;2.08;1.20;;;23.70;86.70;;;;;;5028366;28;20215;-31
2022/07/31 01:37:35;;;;;;;3.10;1.40;;;23.60;86.50;;;;;;5020693;28;20635;-34
2022/07/31 01:40:08;;;;;;;1.35;1.20;;;23.60;86.70;;;;;;5028028;28;20228;-31
2022/07/31 01:42:38;;;;;;;1.45;1.27;;;23.60;86.80;;;;;;5026905;28;20287;-31
2022/07/31 01:45:09;;;;;;;1.55;1.20;;;23.50;86.90;;;;;;5018278;28;20396;-31
2022/07/31 01:47:40;;;;;;;2.13;1.50;;;23.50;86.90;;;;;;5025637;28;20263;-31
2022/07/31 01:50:09;;;;;;;1.83;1.40;;;23.40;86.90;;;;;;5019935;28;20645;-31
2022/07/31 01:52:57;;;;;;;1.80;1.45;;;23.50;87.10;;;;;;5026921;28;20219;-31
2022/07/31 01:55:25;;;;;;;1.75;1.42;;;23.40;87.70;;;;;;5026548;28;20294;-31
2022/07/31 01:58:01;;;;;;;2.25;1.35;;;23.40;87.30;;;;;;5009046;28;20288;-30
2022/07/31 02:00:28;;;;;;;2.20;1.40;;;23.40;87.20;;;;;;5024523;28;20687;-30
2022/07/31 02:03:02;;;;;;;1.77;1.40;;;23.30;87.20;;;;;;5041734;28;20201;-30
2022/07/31 02:05:41;;;;;;;2.25;1.90;;;23.30;87.20;;;;;;5028232;28;20765;-30
2022/07/31 02:08:11;;;;;;;2.47;1.55;;;23.30;87.40;;;;;;5028157;28;20205;-32
2022/07/31 02:10:39;;;;;;;2.75;1.20;;;23.30;87.50;;;;;;5025011;28;20309;-31
2022/07/31 02:13:09;;;;;;;1.65;1.38;;;23.30;87.80;;;;;;5021068;28;20213;-31
2022/07/31 02:15:43;;;;;;;2.47;1.17;;;23.30;87.70;;;;;;5024620;28;20282;-31
2022/07/31 02:18:11;;;;;;;1.67;1.30;;;23.20;87.70;;;;;;5024213;28;20725;-36
2022/07/31 02:20:39;;;;;;;1.27;1.17;;;23.20;87.90;;;;;;5008760;28;20206;-30
2022/07/31 02:23:06;;;;;;;1.17;1.08;;;23.20;88.00;;;;;;5010053;28;20236;-31
2022/07/31 02:25:35;;;;;;;2.70;1.50;;;23.20;88.10;;;;;;5010150;28;20236;-31
2022/07/31 02:28:08;;;;;;;4.43;1.48;;;23.20;88.40;;;;;;5009202;28;20627;-30
2022/07/31 02:30:39;;;;;;;2.90;1.33;;;23.20;88.70;;;;;;5018257;28;20263;-30
2022/07/31 02:33:12;;;;;;;1.13;1.10;;;23.10;88.40;;;;;;5022077;28;20267;-30
2022/07/31 02:35:44;;;;;;;2.30;1.25;;;23.20;88.50;;;;;;5018547;28;20247;-30
2022/07/31 02:38:17;;;;;;;2.10;1.30;;;23.20;89.10;;;;;;5041848;28;20620;-32
2022/07/31 02:40:52;;;;;;;1.45;1.10;;;23.10;88.90;;;;;;5024854;28;20289;-30
2022/07/31 02:43:20;;;;;;;3.72;1.30;;;23.10;89.00;;;;;;5028295;28;20200;-30
2022/07/31 02:45:47;;;;;;;2.92;1.27;;;23.10;89.10;;;;;;5026574;28;21720;-31
2022/07/31 02:48:20;;;;;;;0.93;0.93;;;23.10;89.10;;;;;;5013659;28;20221;-30
2022/07/31 02:50:52;;;;;;;2.25;1.00;;;23.10;89.40;;;;;;5017363;28;20227;-31
2022/07/31 02:53:20;;;;;;;0.80;0.80;;;23.00;89.50;;;;;;5013021;28;20213;-31
2022/07/31 02:55:49;;;;;;;1.23;0.88;;;23.00;89.50;;;;;;5024299;28;20276;-30
2022/07/31 02:58:16;;;;;;;1.98;1.00;;;23.00;89.80;;;;;;5012331;28;20724;-30
2022/07/31 03:00:46;;;;;;;1.20;1.00;;;23.00;89.80;;;;;;5027427;28;20196;-30
2022/07/31 03:03:13;;;;;;;2.33;1.20;;;23.00;89.70;;;;;;5027557;28;20227;-30
2022/07/31 03:05:41;;;;;;;2.40;1.00;;;23.00;90.00;;;;;;5013443;28;20696;-30
2022/07/31 03:08:10;;;;;;;1.08;0.90;;;23.00;90.00;;;;;;5026218;28;20254;-31
2022/07/31 03:10:38;;;;;;;0.93;0.90;;;23.00;90.00;;;;;;5032501;28;20209;-30
2022/07/31 03:13:06;;;;;;;3.40;1.10;;;23.00;90.10;;;;;;5031450;28;20196;-30
2022/07/31 03:15:38;;;;;;;1.60;1.02;;;23.00;90.10;;;;;;5031604;28;20311;-30
2022/07/31 03:18:06;;;;;;;0.95;0.80;;;23.00;90.20;;;;;;5030079;28;20722;-31
2022/07/31 03:20:39;;;;;;;1.67;1.10;;;22.90;90.20;;;;;;5028871;28;20592;-30
2022/07/31 03:23:08;;;;;;;1.00;0.90;;;22.90;90.20;;;;;;5019596;28;20206;-31
2022/07/31 03:25:40;;;;;;;1.08;0.98;;;22.90;90.30;;;;;;5030258;28;20307;-31
2022/07/31 03:28:08;;;;;;;1.75;1.05;;;22.90;90.50;;;;;;5029227;28;20228;-31
2022/07/31 03:30:37;;;;;;;1.40;1.00;;;22.90;90.30;;;;;;5021341;28;20672;-31
2022/07/31 03:33:07;;;;;;;2.47;1.00;;;22.90;90.40;;;;;;5028380;28;20217;-31
2022/07/31 03:35:34;;;;;;;1.33;0.93;;;22.90;90.40;;;;;;5028460;28;20204;-30
2022/07/31 03:38:13;;;;;;;2.88;0.90;;;22.90;90.50;;;;;;5028653;28;20253;-27
2022/07/31 03:41:03;;;;;;;1.58;0.90;;;22.90;90.60;;;;;;5012656;28;20206;-26
2022/07/31 03:43:34;;;;;;;1.20;1.10;;;22.80;90.60;;;;;;5029872;28;20646;-26
2022/07/31 03:46:19;;;;;;;2.03;1.20;;;22.80;90.60;;;;;;5028553;28;20197;-26
2022/07/31 03:48:50;;;;;;;1.42;1.00;;;22.80;90.70;;;;;;5013581;28;20263;-26
2022/07/31 03:51:18;;;;;;;2.45;1.10;;;22.80;90.70;;;;;;5027465;28;20276;-26
2022/07/31 03:53:46;;;;;;;3.53;1.05;;;22.80;90.70;;;;;;5026523;28;20213;-26
2022/07/31 03:56:16;;;;;;;2.63;0.90;;;22.80;90.70;;;;;;5026069;28;20227;-26
2022/07/31 03:58:43;;;;;;;0.80;0.80;;;22.70;90.80;;;;;;5025430;28;20276;-26
2022/07/31 04:01:26;;;;;;;0.73;0.73;;;22.70;90.80;;;;;;5016286;28;20220;-26
2022/07/31 04:04:18;;;;;;;3.05;1.13;;;22.70;90.90;;;;;;5030658;28;20201;-30
2022/07/31 04:06:48;;;;;;;1.95;0.80;;;22.70;91.00;;;;;;5023416;28;20733;-30
2022/07/31 04:09:15;;;;;;;1.98;1.15;;;22.70;90.90;;;;;;5018135;28;20225;-30
2022/07/31 04:11:45;;;;;;;1.95;0.85;;;22.70;91.10;;;;;;5027578;28;20203;-30
2022/07/31 04:14:15;;;;;;;3.20;1.00;;;22.70;91.10;;;;;;5017512;28;20208;-30
2022/07/31 04:16:42;;;;;;;2.00;1.10;;;22.70;91.20;;;;;;5017691;28;20212;-30
2022/07/31 04:19:12;;;;;;;1.00;0.73;;;22.70;91.20;;;;;;5029142;28;20232;-31
2022/07/31 04:21:40;;;;;;;1.75;1.10;;;22.70;91.40;;;;;;5011970;28;20639;-26
2022/07/31 04:24:15;;;;;;;3.17;1.45;;;22.70;91.50;;;;;;5013506;28;20197;-26
2022/07/31 04:26:48;;;;;;;2.15;1.27;;;22.60;91.50;;;;;;5021910;28;20587;-26
2022/07/31 04:29:15;;;;;;;1.73;1.00;;;22.60;91.50;;;;;;5027180;28;20563;-26
2022/07/31 04:31:45;;;;;;;1.65;1.00;;;22.60;91.60;;;;;;5017914;28;20241;-30
2022/07/31 04:34:15;;;;;;;2.25;1.20;;;22.60;91.50;;;;;;5014513;28;20236;-30
2022/07/31 04:36:42;;;;;;;1.98;1.10;;;22.60;91.60;;;;;;5031571;28;20315;-30
2022/07/31 04:39:09;;;;;;;1.80;1.10;;;22.60;91.60;;;;;;5014767;28;20217;-30
2022/07/31 04:41:36;;;;;;;1.02;0.85;;;22.60;91.70;;;;;;5019573;28;20205;-30
2022/07/31 04:44:03;;;;;;;2.78;1.15;;;22.60;91.70;;;;;;5029953;28;20550;-30
2022/07/31 04:46:33;;;;;;;1.95;0.80;;;22.60;91.80;;;;;;5021187;28;20217;-30
2022/07/31 04:49:02;;;;;;;1.02;0.82;;;22.60;91.80;;;;;;5013256;28;20220;-31
2022/07/31 04:51:34;;;;;;;1.25;1.10;;;22.60;91.80;;;;;;5010927;28;20575;-30
2022/07/31 04:54:02;;;;;;;1.73;1.15;;;22.60;91.90;;;;;;5015141;28;20262;-30
2022/07/31 04:56:36;;;;;;;1.20;1.10;;;22.60;91.90;;;;;;5021660;28;20296;-30
2022/07/31 04:59:06;;;;;;;2.22;1.30;;;22.60;92.00;;;;;;5025522;28;20228;-30
2022/07/31 05:01:36;;;;;;;1.58;1.10;;;22.60;92.00;;;;;;5018272;28;20198;-30
2022/07/31 05:04:05;;;;;;;3.28;1.20;;;22.60;92.10;;;;;;5007681;28;20224;-30
2022/07/31 05:06:43;;;;;;;1.80;1.10;;;22.70;92.10;;;;;;5017395;28;20588;-30
2022/07/31 05:09:15;;;;;;;1.27;0.93;;;22.60;92.30;;;;;;5028517;28;20197;-30
2022/07/31 05:11:46;;;;;;;3.00;1.25;;;22.70;92.30;;;;;;5029422;28;20239;-30
2022/07/31 05:14:19;;;;;;;1.95;1.05;;;22.70;92.20;;;;;;5043901;28;20197;-30
2022/07/31 05:16:47;;;;;;;1.50;1.08;;;22.70;92.20;;;;;;5029984;28;20247;-30
2022/07/31 05:19:15;;;;;;;2.33;1.20;;;22.70;92.40;;;;;;5028052;28;20209;-30
2022/07/31 05:21:43;;;;;;;3.90;1.17;;;22.70;92.60;;;;;;5020452;28;20267;-30
2022/07/31 05:24:19;;;;;;;2.00;1.20;;;22.70;92.40;;;;;;5028623;28;20204;-30
2022/07/31 05:27:01;;;;;;;1.38;1.13;;;22.70;92.40;;;;;;5023035;28;20202;-30
2022/07/31 05:29:32;;;;;;;2.25;1.27;;;22.80;92.50;;;;;;5020664;28;20270;-30
2022/07/31 05:32:03;;;;;;;2.53;1.33;;;22.70;92.40;;;;;;5028772;28;20213;-30
2022/07/31 05:34:33;;;;;;;1.13;1.08;;;22.70;92.40;;;;;;5028535;28;20211;-30
2022/07/31 05:37:01;;;;;;;2.40;1.08;;;22.80;92.60;;;;;;5032300;28;20263;-30
2022/07/31 05:39:29;;;;;;;1.88;1.55;;;22.80;92.50;;;;;;5028989;28;20327;-30
2022/07/31 05:41:59;;;;;;;2.33;1.25;;;22.80;92.50;;;;;;5008469;28;20249;-30
2022/07/31 05:44:26;;;;;;;1.40;1.27;;;22.90;92.70;;;;;;5025124;28;20257;-30
2022/07/31 05:46:53;;;;;;;2.00;1.20;;;22.90;92.70;;;;;;5019761;28;20205;-30
2022/07/31 05:49:20;;;;;;;1.35;1.25;;;22.90;92.70;;;;;;5021667;28;20196;-30
2022/07/31 05:51:52;;;;;;;1.70;1.55;;;22.90;92.70;;;;;;5010013;28;20599;-30
2022/07/31 05:54:21;;;;;;;1.60;1.45;;;22.90;92.70;;;;;;5009101;28;20210;-32
2022/07/31 05:56:50;;;;;;;1.88;1.33;;;22.90;92.80;;;;;;4988019;28;20922;-30
2022/07/31 05:59:18;;;;;;;2.55;1.55;;;22.90;92.90;;;;;;5007139;28;20249;-30
2022/07/31 06:01:48;;;;;;;2.03;1.38;;;23.00;92.90;;;;;;5021562;28;20213;-30
2022/07/31 06:04:16;;;;;;;2.67;1.38;;;23.00;92.90;;;;;;5027643;28;20213;-30
2022/07/31 06:06:43;;;;;;;2.53;1.48;;;23.00;92.90;;;;;;5029069;28;20304;-30
2022/07/31 06:09:10;;;;;;;1.75;1.63;;;23.00;93.00;;;;;;5026175;28;20259;-30
2022/07/31 06:11:37;;;;;;;3.03;2.10;;;23.00;93.00;;;;;;5023204;28;20207;-30
2022/07/31 06:14:08;;;;;;;3.95;2.03;;;23.00;93.00;;;;;;5019729;28;20508;-30
2022/07/31 06:16:35;;;;;;;1.92;1.73;;;23.10;93.10;;;;;;5009100;28;20227;-31
2022/07/31 06:19:05;;;;;;;2.70;1.70;;;23.10;93.10;;;;;;5021136;28;20228;-31
2022/07/31 06:21:35;;;;;;;2.67;1.70;;;23.10;93.10;;;;;;5010460;28;20211;-30
2022/07/31 06:24:02;;;;;;;1.70;1.60;;;23.10;93.20;;;;;;5018357;28;20194;-30
2022/07/31 06:26:29;;;;;;;2.20;2.00;;;23.20;93.20;;;;;;5025005;28;20264;-37
2022/07/31 06:28:57;;;;;;;2.58;1.80;;;23.20;93.40;;;;;;5017664;28;20208;-30
2022/07/31 06:31:24;;;;;;;2.28;1.90;;;23.20;93.20;;;;;;5008101;28;20241;-30
2022/07/31 06:33:54;;;;;;;2.40;1.95;;;23.30;93.30;;;;;;5020658;28;20585;-30
2022/07/31 06:36:21;;;;;;;3.30;2.20;;;23.30;93.40;;;;;;5010324;28;20205;-30
2022/07/31 06:38:48;;;;;;;3.28;2.13;;;23.40;93.60;;;;;;5028465;28;20621;-30
2022/07/31 06:44:01;;;;;;;2.65;2.10;;;23.50;93.60;;;;;;5022257;28;20292;-30
2022/07/31 06:46:28;;;;;;;3.85;2.50;;;23.50;93.50;;;;;;5009364;28;20461;-30
2022/07/31 06:48:55;;;;;;;3.67;2.80;;;23.60;93.70;;;;;;5007391;28;20319;-30
2022/07/31 06:51:27;;;;;;;4.20;2.80;;;23.60;93.70;;;;;;5023024;28;20193;-30
2022/07/31 06:54:02;;;;;;;2.97;2.60;;;23.60;94.00;;;;;;5026603;28;20554;-30
2022/07/31 06:56:30;;;;;;;3.97;2.95;;;23.70;93.80;;;;;;5013964;28;20304;-30
2022/07/31 06:58:57;;;;;;;4.20;2.40;;;23.70;93.90;;;;;;5023050;28;20757;-30
2022/07/31 07:01:28;;;;;;;3.17;2.55;;;23.70;93.70;;;;;;5023857;28;20232;-30
2022/07/31 07:03:56;;;;;;;3.80;2.58;;;23.80;93.90;;;;;;5009858;28;20229;-30
2022/07/31 07:06:28;;;;;;;4.43;2.72;;;23.90;93.90;;;;;;5010224;28;20267;-26
2022/07/31 07:08:55;;;;;;;3.70;2.92;;;23.90;93.90;;;;;;5012874;28;20204;-26
2022/07/31 07:11:23;;;;;;;6.22;2.80;;;23.90;93.90;;;;;;5015519;28;20202;-26
2022/07/31 07:13:50;;;;;;;4.40;3.05;;;23.90;93.90;;;;;;5017154;28;20295;-26
2022/07/31 07:16:17;;;;;;;3.45;2.75;;;24.00;94.10;;;;;;5026436;28;20319;-26
2022/07/31 07:18:44;;;;;;;4.63;2.83;;;24.00;94.20;;;;;;5010859;28;20329;-27
2022/07/31 07:21:15;;;;;;;5.07;2.60;;;24.00;94.00;;;;;;5026146;28;20255;-26
2022/07/31 07:23:42;;;;;;;4.78;2.70;;;24.10;94.10;;;;;;5026718;28;20225;-27
2022/07/31 07:26:09;;;;;;;3.70;2.75;;;24.10;94.10;;;;;;5024910;28;20198;-26
2022/07/31 07:28:37;;;;;;;4.07;2.90;;;24.20;94.10;;;;;;5018199;28;20220;-26
2022/07/31 07:31:08;;;;;;;3.30;2.80;;;24.20;94.20;;;;;;5019002;28;20331;-26
2022/07/31 07:33:38;;;;;;;3.17;2.88;;;24.20;94.10;;;;;;5018605;28;20218;-27
2022/07/31 07:36:12;;;;;;;2.78;2.40;;;24.30;94.20;;;;;;5024349;28;20653;-26
2022/07/31 07:38:55;;;;;;;2.97;2.50;;;24.30;94.20;;;;;;5009666;28;20615;-27
2022/07/31 07:41:27;;;;;;;3.03;2.75;;;24.40;94.40;;;;;;5007923;28;20282;-26
2022/07/31 07:43:59;;;;;;;3.70;2.63;;;24.40;94.30;;;;;;5020211;28;20658;-26
2022/07/31 07:46:27;;;;;;;3.33;2.35;;;24.50;94.30;;;;;;5008049;28;20202;-25
2022/07/31 07:48:54;;;;;;;2.97;2.72;;;24.50;94.30;;;;;;5020957;28;20197;-25
2022/07/31 07:51:23;;;;;;;3.15;2.53;;;24.60;94.40;;;;;;5017197;28;20217;-30
2022/07/31 07:53:51;;;;;;;2.75;2.38;;;24.60;94.50;;;;;;5017863;28;20571;-29
2022/07/31 07:56:20;;;;;;;3.25;2.40;;;24.70;94.40;;;;;;5019936;28;20205;-30
2022/07/31 07:58:48;;;;;;;2.90;2.70;;;24.70;94.40;;;;;;5027428;28;20267;-30
2022/07/31 08:01:16;;;;;;;3.35;2.70;;;24.80;94.50;;;;;;5013780;28;20220;-31
2022/07/31 08:03:43;;;;;;;3.65;2.10;;;24.80;94.50;;;;;;5013086;28;20229;-30
2022/07/31 08:06:22;;;;;;;3.72;2.70;;;24.90;94.50;;;;;;5017661;28;20550;-31
2022/07/31 08:08:51;;;;;;;4.68;2.63;;;25.00;94.60;;;;;;5013780;28;20245;-31
2022/07/31 08:11:21;;;;;;;3.03;2.42;;;25.10;94.60;;;;;;5012194;28;20213;-30
2022/07/31 08:13:51;;;;;;;4.78;2.63;;;25.10;94.60;;;;;;5020774;28;20739;-31
2022/07/31 08:16:21;;;;;;;3.72;2.67;;;25.20;94.60;;;;;;5009851;28;20217;-30
2022/07/31 08:18:53;;;;;;;4.13;2.30;;;25.30;94.70;;;;;;5016131;28;20209;-26
2022/07/31 08:21:23;;;;;;;2.70;2.47;;;25.30;94.60;;;;;;5020081;28;20224;-31
2022/07/31 08:23:52;;;;;;;4.72;2.60;;;25.30;94.60;;;;;;5026296;28;20623;-27
2022/07/31 08:26:22;;;;;;;3.58;2.75;;;25.30;94.60;;;;;;5025433;28;20674;-30
2022/07/31 08:28:56;;;;;;;2.85;2.40;;;25.40;94.60;;;;;;5018378;28;20209;-30
2022/07/31 08:31:23;;;;;;;2.92;2.28;;;25.40;94.60;;;;;;5017641;28;20229;-30
2022/07/31 08:33:51;;;;;;;3.55;2.40;;;25.50;94.60;;;;;;5008904;28;20224;-30
2022/07/31 08:36:19;;;;;;;2.28;2.08;;;25.50;94.70;;;;;;5012607;28;20256;-31
2022/07/31 08:38:46;;;;;;;3.33;2.08;;;25.50;94.60;;;;;;5014840;28;20205;-31
2022/07/31 08:41:18;;;;;;;2.78;2.17;;;25.50;94.50;;;;;;5024743;28;20266;-30
2022/07/31 08:43:50;;;;;;;3.13;2.22;;;25.50;94.60;;;;;;5024048;28;20197;-30
2022/07/31 08:46:37;;;;;;;3.05;2.40;;;25.60;94.60;;;;;;5017816;28;20213;-30
2022/07/31 08:49:08;;;;;;;3.30;2.35;;;25.70;94.70;;;;;;5017030;28;20224;-30
2022/07/31 08:51:39;;;;;;;3.00;2.45;;;25.70;94.70;;;;;;5030341;28;20200;-30
2022/07/31 08:54:19;;;;;;;5.28;2.25;;;25.70;94.80;;;;;;5010522;28;20201;-30
2022/07/31 08:56:52;;;;;;;3.42;2.42;;;25.70;94.70;;;;;;5027546;28;20691;-30
2022/07/31 08:59:19;;;;;;;2.53;2.22;;;25.80;94.70;;;;;;5026579;28;20232;-31
2022/07/31 09:01:46;;;;;;;2.88;2.22;;;25.80;94.70;;;;;;5027959;28;20299;-30
2022/07/31 09:04:16;;;;;;;2.65;2.30;;;25.80;94.70;;;;;;5018926;28;20212;-30
2022/07/31 09:06:44;;;;;;;2.53;2.33;;;25.90;94.70;;;;;;5017138;28;20197;-30
2022/07/31 09:09:11;;;;;;;3.22;2.20;;;25.90;94.70;;;;;;5019659;28;20224;-30
2022/07/31 09:11:49;;;;;;;2.97;2.25;;;25.90;94.60;;;;;;5018950;28;20224;-30
2022/07/31 09:14:33;;;;;;;3.33;2.63;;;26.00;94.70;;;;;;5014780;28;20255;-32
2022/07/31 09:17:06;;;;;;;4.35;2.10;;;26.00;94.70;;;;;;5024912;28;20220;-23
2022/07/31 09:19:41;;;;;;;4.22;2.70;;;26.00;94.80;;;;;;5010248;28;20229;-27
2022/07/31 09:22:21;;;;;;;2.20;2.00;;;26.00;94.70;;;;;;5021551;28;20205;-24
2022/07/31 09:24:48;;;;;;;2.17;2.05;;;26.00;94.60;;;;;;5029942;28;20209;-24
2022/07/31 09:27:16;;;;;;;2.45;2.25;;;26.00;94.60;;;;;;5020542;28;20279;-24
2022/07/31 09:29:47;;;;;;;4.97;2.67;;;26.00;94.70;;;;;;5025626;28;21030;-28
2022/07/31 09:32:18;;;;;;;2.80;2.50;;;26.10;94.70;;;;;;5024925;28;20211;-24
2022/07/31 09:34:46;;;;;;;2.63;2.05;;;26.10;94.70;;;;;;5011126;28;20219;-24
2022/07/31 09:37:15;;;;;;;3.67;2.55;;;26.10;94.70;;;;;;5020186;28;20255;-24
2022/07/31 09:39:49;;;;;;;2.78;2.47;;;26.10;94.70;;;;;;5020206;28;20311;-24
2022/07/31 09:42:22;;;;;;;2.63;2.38;;;26.20;94.60;;;;;;5010626;28;20224;-25
2022/07/31 09:44:52;;;;;;;3.97;2.40;;;26.20;94.50;;;;;;5033824;28;20225;-25
2022/07/31 09:47:28;;;;;;;3.40;2.80;;;26.10;94.50;;;;;;5009483;28;20225;-24
2022/07/31 09:49:58;;;;;;;3.22;2.17;;;26.10;94.60;;;;;;5016568;28;20211;-24
2022/07/31 09:52:30;;;;;;;2.78;2.55;;;26.20;94.60;;;;;;5005106;28;20285;-25
2022/07/31 09:55:07;;;;;;;4.18;2.60;;;26.20;94.60;;;;;;5013354;28;20213;-32
2022/07/31 09:57:56;;;;;;;4.10;2.50;;;26.20;94.60;;;;;;5016043;28;20193;-32
2022/07/31 10:00:27;;;;;;;3.17;2.65;;;26.30;94.60;;;;;;5014690;28;20308;-32
2022/07/31 10:02:56;;;;;;;6.10;2.63;;;26.30;94.60;;;;;;5009681;28;20256;-32
2022/07/31 10:05:26;;;;;;;4.05;2.30;;;26.30;94.70;;;;;;5012087;28;20573;-32
2022/07/31 10:07:59;;;;;;;4.28;2.78;;;26.40;94.70;;;;;;5025542;28;20235;-32
2022/07/31 10:10:29;;;;;;;3.25;2.53;;;26.50;95.10;;;;;;5019560;28;20588;-32
2022/07/31 10:13:00;;;;;;;2.80;2.60;;;26.60;94.80;;;;;;5016578;28;20228;-31
2022/07/31 10:15:28;;;;;;;4.20;2.78;;;26.70;94.80;;;;;;5016900;28;20680;-31
2022/07/31 10:17:56;;;;;;;5.63;2.58;;;26.80;94.80;;;;;;5019382;28;20201;-31
2022/07/31 10:20:27;;;;;;;3.58;2.75;;;26.80;94.60;;;;;;5010817;28;20734;-31
2022/07/31 10:23:04;;;;;;;3.25;2.88;;;26.80;94.60;;;;;;5021506;28;20208;-32
2022/07/31 10:25:34;;;;;;;3.40;3.10;;;26.90;94.70;;;;;;5019095;28;20242;-31
2022/07/31 10:28:05;;;;;;;4.47;2.78;;;26.90;94.70;;;;;;5028803;28;20284;-24
2022/07/31 10:30:32;;;;;;;3.63;2.92;;;27.00;94.70;;;;;;5024785;28;20680;-24
2022/07/31 10:33:04;;;;;;;5.45;3.03;;;27.10;94.80;;;;;;5012510;28;20291;-32
2022/07/31 10:36:15;;;;;;;3.95;3.00;;;27.20;94.80;;;;;;5016496;28;20220;-24
2022/07/31 10:39:15;;;;;;;3.75;2.92;;;27.20;94.60;;;;;;5016828;28;20306;-24
2022/07/31 10:41:53;;;;;;;5.22;4.20;;;27.20;94.50;;;;;;5013437;28;20228;-24
2022/07/31 10:44:26;;;;;;;6.97;3.83;;;27.30;94.60;;;;;;5026944;28;20291;-24
2022/07/31 10:46:54;;;;;;;3.40;3.10;;;27.30;94.40;;;;;;5019697;28;20376;-23
2022/07/31 10:49:40;;;;;;;5.25;3.42;;;27.30;94.50;;;;;;5012969;28;20201;-24
2022/07/31 10:52:10;;;;;;;3.63;3.33;;;27.30;94.50;;;;;;5025780;28;20197;-31
2022/07/31 10:54:48;;;;;;;4.30;3.35;;;27.40;94.60;;;;;;5028627;28;20225;-31
2022/07/31 10:57:23;;;;;;;5.65;3.45;;;27.50;94.60;;;;;;5021849;28;20671;-32
2022/07/31 11:00:06;;;;;;;3.40;3.10;;;27.60;94.60;;;;;;5015391;28;20239;-31
2022/07/31 11:02:36;;;;;;;5.20;3.22;;;27.60;94.40;;;;;;5017623;28;20675;-31
2022/07/31 11:05:26;;;;;;;3.42;3.13;;;27.70;94.50;;;;;;5014129;28;20217;-31
2022/07/31 11:08:06;;;;;;;4.55;2.78;;;27.70;94.50;;;;;;5020016;28;20210;-32
2022/07/31 11:10:33;;;;;;;4.00;3.17;;;27.80;94.60;;;;;;5025056;28;20467;-32
2022/07/31 11:13:09;;;;;;;7.68;3.35;;;27.80;94.50;;;;;;5016877;28;20219;-32
2022/07/31 11:15:37;;;;;;;6.55;3.30;;;27.80;94.50;;;;;;5009890;28;20201;-32
2022/07/31 11:18:19;;;;;;;4.10;3.30;;;27.90;94.50;;;;;;5015503;28;20201;-32
2022/07/31 11:21:28;;;;;;;4.82;3.30;;;27.90;94.20;;;;;;5011674;28;20213;-31
2022/07/31 11:24:18;;;;;;;5.28;3.38;;;27.90;94.30;;;;;;5015211;28;20201;-35
2022/07/31 11:26:54;;;;;;;4.30;3.25;;;27.90;94.30;;;;;;5009391;28;20205;-38
2022/07/31 11:29:33;;;;;;;4.28;3.25;;;27.80;94.20;;;;;;5013991;28;20264;-32
2022/07/31 11:32:23;;;;;;;3.22;2.92;;;27.80;94.20;;;;;;5016864;28;20433;-32
2022/07/31 11:34:54;;;;;;;7.43;3.25;;;27.80;94.20;;;;;;5031673;28;20209;-31
2022/07/31 11:37:29;;;;;;;5.97;3.25;;;27.80;94.20;;;;;;5029140;28;20632;-32
2022/07/31 11:40:15;;;;;;;5.07;2.92;;;27.80;94.30;;;;;;5017970;28;20256;-31
2022/07/31 11:42:44;;;;;;;4.40;2.92;;;27.80;94.30;;;;;;5012294;28;20610;-32
2022/07/31 11:45:16;;;;;;;41.38;4.80;;;27.90;94.40;;;;;;5021507;28;20236;-31
2022/07/31 11:47:46;;;;;;;5.30;2.80;;;27.90;94.30;;;;;;5011480;28;20280;-32
2022/07/31 11:50:46;;;;;;;5.05;2.65;;;28.00;94.40;;;;;;5011197;28;20574;-32
2022/07/31 11:53:13;;;;;;;3.22;2.65;;;28.00;94.40;;;;;;5014318;28;20205;-31
2022/07/31 11:55:56;;;;;;;4.15;2.80;;;28.10;94.50;;;;;;5012603;28;20571;-32
2022/07/31 11:58:28;;;;;;;3.47;2.47;;;28.10;94.40;;;;;;5010195;28;20380;-31
2022/07/31 12:01:00;;;;;;;3.90;2.75;;;28.20;94.30;;;;;;5011638;28;20238;-31
2022/07/31 12:03:38;;;;;;;2.72;2.45;;;28.10;94.30;;;;;;5009091;28;20736;-31
2022/07/31 12:06:09;;;;;;;4.05;2.33;;;28.10;94.20;;;;;;5013046;28;20299;-31
2022/07/31 12:08:40;;;;;;;2.22;2.03;;;28.10;94.20;;;;;;5026465;28;20211;-32
2022/07/31 12:11:08;;;;;;;2.10;1.90;;;28.10;94.20;;;;;;5025387;28;20324;-32
2022/07/31 12:13:37;;;;;;;2.50;2.15;;;28.20;94.30;;;;;;5010226;28;20245;-33
2022/07/31 12:16:07;;;;;;;3.30;2.50;;;28.20;94.30;;;;;;5011513;28;20240;-32
2022/07/31 12:19:07;;;;;;;3.88;2.13;;;28.30;94.30;;;;;;5010436;28;20210;-31
2022/07/31 12:21:38;;;;;;;2.40;2.20;;;28.30;94.30;;;;;;4999482;28;20261;-32
2022/07/31 12:24:13;;;;;;;4.45;2.13;;;28.30;94.20;;;;;;5022836;28;20282;-31
2022/07/31 12:26:52;;;;;;;3.13;2.20;;;28.30;94.30;;;;;;5018682;28;20213;-31
2022/07/31 12:29:40;;;;;;;2.10;1.90;;;28.30;94.20;;;;;;5026853;28;20209;-32
2022/07/31 12:32:08;;;;;;;2.70;2.00;;;28.40;94.30;;;;;;5031042;28;20563;-32
2022/07/31 12:34:41;;;;;;;4.53;1.83;;;28.40;94.40;;;;;;5027954;28;20232;-32
2022/07/31 12:37:10;;;;;;;4.18;1.88;;;28.40;94.40;;;;;;5028542;28;20200;-32
2022/07/31 12:39:57;;;;;;;2.80;2.00;;;28.40;94.40;;;;;;5031074;28;20729;-32
2022/07/31 12:42:28;;;;;;;2.80;1.90;;;28.50;94.40;;;;;;5015711;28;20249;-31
2022/07/31 12:45:02;;;;;;;3.47;1.90;;;28.50;94.50;;;;;;5014392;28;20224;-32
2022/07/31 12:47:53;;;;;;;2.33;1.60;;;28.50;94.40;;;;;;5016513;28;20198;-32
2022/07/31 12:50:24;;;;;;;1.88;1.70;;;28.60;94.40;;;;;;5020039;28;20220;-32
2022/07/31 12:52:52;;;;;;;3.92;2.05;;;28.50;94.40;;;;;;5014175;28;20252;-33
2022/07/31 12:55:21;;;;;;;4.55;1.95;;;28.60;94.40;;;;;;5014762;28;20201;-31
2022/07/31 12:57:49;;;;;;;2.78;1.80;;;28.60;94.30;;;;;;5022634;28;20300;-31
2022/07/31 13:00:21;;;;;;;1.67;1.50;;;28.60;94.20;;;;;;5011227;28;20216;-32
2022/07/31 13:02:50;;;;;;;3.70;1.58;;;28.60;94.30;;;;;;5023764;28;20201;-32
2022/07/31 13:05:21;;;;;;;1.67;1.40;;;28.60;94.50;;;;;;5021209;28;20838;-32
2022/07/31 13:07:53;;;;;;;3.28;1.38;;;28.50;94.00;;;;;;5021592;28;20239;-32
2022/07/31 13:10:21;;;;;;;1.88;1.40;;;28.50;94.00;;;;;;5036981;28;20193;-32
2022/07/31 13:12:53;;;;;;;4.35;1.58;;;28.50;94.10;;;;;;5007957;28;20296;-33
2022/07/31 13:15:29;;;;;;;2.75;1.30;;;28.50;94.20;;;;;;5012853;28;20212;-33